aviador You're here:

KHFF Decoded Metar

HOFFMAN/MACKALL in NC, USA
Report Time2017-12-16 03:14:00
UTC Time2017-12-16 03:39:41
Flight Rules vfr VFR
Wind310° at 03 kt
W.Decomp.*RWY 34: 2.7 kt HW 1.2 kt LCW
RWY 29: 2.7 kt HW 1.3 kt RCW
RWY 04: 0.3 kt HW 3 kt LCW
W.Rank310° ranks 22
Current wind is below 310° avg. (5.5)
Visibility9999 m
Phenomena:N/A
Clouds:N/A
Expected CloudBase > 1,200 ft AGL from Temp-Dew spread
CeilingNone
Temp00°C (ISA -14)
Dew Point-3°C (80% RH)
AAT-3.5°C
QNH1019 hPa
Density Alt-1,499 ft
Elevation377 ft
Report Wrong Elevation
Raw Report
KHFF 160314Z AUTO 31003KT 10SM CLR 00/M03 A3010 RMK AO2 PRESRR
SLP212=

Extra information for KHFF:More info

Metar Taf Metar & Taf Last 4 Metars F.Rules Stats Wind Profile Meteogram Temp Stats Airport Information Weather charts Add Link Nearby VenuesMetar ALERT Operation Metar Decoded Social comments

AIRNAV info for KHFF